createdAt,value
2016-12-15T00:00:05.987Z,996.68
2016-12-15T00:01:14.705Z,996.63
2016-12-15T00:02:23.390Z,996.57
2016-12-15T00:03:32.071Z,996.52
2016-12-15T00:04:40.753Z,996.5
2016-12-15T00:05:49.434Z,996.49
2016-12-15T00:06:58.118Z,996.48
2016-12-15T00:08:06.801Z,996.49
2016-12-15T00:09:15.479Z,996.48
2016-12-15T00:10:24.189Z,996.48
2016-12-15T00:11:32.874Z,996.45
2016-12-15T00:12:41.556Z,996.47
2016-12-15T00:13:50.239Z,996.48
2016-12-15T00:14:58.921Z,996.48
2016-12-15T00:16:07.617Z,996.48
2016-12-15T00:17:16.323Z,996.47
2016-12-15T00:18:25.002Z,996.49
2016-12-15T00:19:33.685Z,996.5
2016-12-15T00:20:42.368Z,996.53
2016-12-15T00:21:51.052Z,996.47
2016-12-15T00:22:59.732Z,996.49
2016-12-15T00:24:08.411Z,996.48
2016-12-15T00:25:17.097Z,996.5
2016-12-15T00:26:25.778Z,996.49
2016-12-15T00:27:34.473Z,996.47
2016-12-15T00:28:43.154Z,996.5
2016-12-15T00:29:51.835Z,996.48
2016-12-15T00:31:00.542Z,996.5
2016-12-15T00:32:09.225Z,996.53
2016-12-15T00:33:17.905Z,996.47
2016-12-15T00:34:26.583Z,996.47
2016-12-15T00:35:35.261Z,996.45
2016-12-15T00:36:43.942Z,996.45
2016-12-15T00:37:52.620Z,996.41
2016-12-15T00:39:01.312Z,996.43
2016-12-15T00:40:09.992Z,996.44
2016-12-15T00:41:18.675Z,996.43
2016-12-15T00:42:27.356Z,996.45
2016-12-15T00:43:36.037Z,996.42
2016-12-15T00:44:44.748Z,996.36
2016-12-15T00:45:53.430Z,996.39
2016-12-15T00:47:02.113Z,996.4
2016-12-15T00:48:10.796Z,996.37
2016-12-15T00:49:19.479Z,996.41
2016-12-15T00:50:28.158Z,996.43
2016-12-15T00:51:36.837Z,996.4
2016-12-15T00:52:45.520Z,996.42
2016-12-15T00:53:54.205Z,996.4
2016-12-15T00:55:02.897Z,996.36
2016-12-15T00:56:11.579Z,996.36
2016-12-15T00:57:20.260Z,996.31
2016-12-15T00:58:28.941Z,996.36
2016-12-15T00:59:37.624Z,996.34
2016-12-15T01:00:46.317Z,996.35
2016-12-15T01:01:55.314Z,996.3
2016-12-15T01:03:03.998Z,996.34
2016-12-15T01:04:12.679Z,996.32
2016-12-15T01:05:21.362Z,996.37
2016-12-15T01:06:30.069Z,996.33
2016-12-15T01:07:38.750Z,996.36
2016-12-15T01:08:47.428Z,996.39
2016-12-15T01:09:56.118Z,996.4
2016-12-15T01:11:04.801Z,996.38
2016-12-15T01:12:13.485Z,996.4
2016-12-15T01:13:22.167Z,996.37
2016-12-15T01:14:30.877Z,996.4
2016-12-15T01:15:39.571Z,996.37
2016-12-15T01:16:48.265Z,996.37
2016-12-15T01:17:56.951Z,996.33
2016-12-15T01:19:05.668Z,996.32
2016-12-15T01:20:14.352Z,996.26
2016-12-15T01:21:23.038Z,996.24
2016-12-15T01:22:31.722Z,996.28
2016-12-15T01:23:40.400Z,996.3
2016-12-15T01:24:49.114Z,996.25
2016-12-15T01:25:57.795Z,996.27
2016-12-15T01:27:06.480Z,996.2
2016-12-15T01:28:15.167Z,996.16
2016-12-15T01:29:23.890Z,996.16
2016-12-15T01:30:32.571Z,996.18
2016-12-15T01:31:41.252Z,996.21
2016-12-15T01:32:49.963Z,996.24
2016-12-15T01:33:58.647Z,996.26
2016-12-15T01:35:07.333Z,996.24
2016-12-15T01:36:16.011Z,996.26
2016-12-15T01:37:24.696Z,996.26
2016-12-15T01:38:33.379Z,996.29
2016-12-15T01:39:42.058Z,996.29
2016-12-15T01:40:50.739Z,996.3
2016-12-15T01:41:59.418Z,996.31
2016-12-15T01:43:08.103Z,996.26
2016-12-15T01:44:16.792Z,996.29
2016-12-15T01:45:25.473Z,996.3
2016-12-15T01:46:34.184Z,996.32
2016-12-15T01:47:42.870Z,996.38
2016-12-15T01:48:51.556Z,996.46
2016-12-15T01:50:00.243Z,996.45
2016-12-15T01:51:09.265Z,996.44
2016-12-15T01:52:17.948Z,996.48
2016-12-15T01:53:26.636Z,996.55
2016-12-15T01:54:35.323Z,996.56
2016-12-15T01:55:44.007Z,996.49
2016-12-15T01:56:52.697Z,996.51
2016-12-15T01:58:01.381Z,996.52
2016-12-15T01:59:10.065Z,996.47
2016-12-15T02:00:19.068Z,996.51
2016-12-15T02:01:27.747Z,996.47
2016-12-15T02:02:36.433Z,996.44
2016-12-15T02:03:45.115Z,996.42
2016-12-15T02:04:53.799Z,996.41
2016-12-15T02:06:02.486Z,996.38
2016-12-15T02:07:11.167Z,996.48
2016-12-15T02:08:19.851Z,996.48
2016-12-15T02:09:28.530Z,996.49
2016-12-15T02:10:37.215Z,996.51
2016-12-15T02:11:45.895Z,996.55
2016-12-15T02:12:54.606Z,996.54
2016-12-15T02:14:03.295Z,996.59
2016-12-15T02:15:11.977Z,996.59
2016-12-15T02:16:20.658Z,996.57
2016-12-15T02:17:29.367Z,996.59
2016-12-15T02:18:38.045Z,996.59
2016-12-15T02:19:46.757Z,996.56
2016-12-15T02:20:55.441Z,996.52
2016-12-15T02:22:04.121Z,996.48
2016-12-15T02:23:12.803Z,996.48
2016-12-15T02:24:21.481Z,996.5
2016-12-15T02:25:30.160Z,996.49
2016-12-15T02:26:38.841Z,996.44
2016-12-15T02:27:47.536Z,996.41
2016-12-15T02:28:56.242Z,996.41
2016-12-15T02:30:04.947Z,996.41
2016-12-15T02:31:13.629Z,996.4
2016-12-15T02:32:22.320Z,996.41
2016-12-15T02:33:31.002Z,996.41
2016-12-15T02:34:39.693Z,996.39
2016-12-15T02:35:48.373Z,996.39
2016-12-15T02:36:57.057Z,996.38
2016-12-15T02:38:05.743Z,996.42
2016-12-15T02:39:14.424Z,996.32
2016-12-15T02:40:23.104Z,996.3
2016-12-15T02:41:31.796Z,996.25
2016-12-15T02:42:40.475Z,996.2
2016-12-15T02:43:49.155Z,996.16
2016-12-15T02:44:57.838Z,996.11
2016-12-15T02:46:06.521Z,996.14
2016-12-15T02:47:15.201Z,996.17
2016-12-15T02:48:23.881Z,996.14
2016-12-15T02:49:32.567Z,996.18
2016-12-15T02:50:41.257Z,996.25
2016-12-15T02:51:49.977Z,996.23
2016-12-15T02:52:58.664Z,996.17
2016-12-15T02:54:07.350Z,996.16
2016-12-15T02:55:16.030Z,996.14
2016-12-15T02:56:24.721Z,996.15
2016-12-15T02:57:33.407Z,996.2
2016-12-15T02:58:42.086Z,996.24
2016-12-15T02:59:50.790Z,996.19
2016-12-15T03:00:59.465Z,996.16
2016-12-15T03:02:08.153Z,996.15
2016-12-15T03:03:16.839Z,996.17
2016-12-15T03:04:25.516Z,996.14
2016-12-15T03:05:34.197Z,996.16
2016-12-15T03:06:42.881Z,996.18
2016-12-15T03:07:51.563Z,996.17
2016-12-15T03:09:00.255Z,996.18
2016-12-15T03:10:08.938Z,996.18
2016-12-15T03:11:17.619Z,996.19
2016-12-15T03:12:26.297Z,996.22
2016-12-15T03:13:34.977Z,996.22
2016-12-15T03:14:43.660Z,996.26
2016-12-15T03:15:52.346Z,996.28
2016-12-15T03:17:01.025Z,996.26
2016-12-15T03:18:09.704Z,996.26
2016-12-15T03:19:18.388Z,996.24
2016-12-15T03:20:27.078Z,996.26
2016-12-15T03:21:35.755Z,996.25
2016-12-15T03:22:44.441Z,996.26
2016-12-15T03:23:53.122Z,996.23
2016-12-15T03:25:01.804Z,996.18
2016-12-15T03:26:10.487Z,996.23
2016-12-15T03:27:19.164Z,996.25
2016-12-15T03:28:27.846Z,996.25
2016-12-15T03:29:36.530Z,996.26
2016-12-15T03:30:45.217Z,996.26
2016-12-15T03:31:53.899Z,996.28
2016-12-15T03:33:02.583Z,996.29
2016-12-15T03:34:11.264Z,996.25
2016-12-15T03:35:19.941Z,996.18
2016-12-15T03:36:28.620Z,996.24
2016-12-15T03:37:37.614Z,996.26
2016-12-15T03:38:46.299Z,996.24
2016-12-15T03:39:55.004Z,996.28
2016-12-15T03:41:03.688Z,996.25
2016-12-15T03:42:12.369Z,996.24
2016-12-15T03:43:21.052Z,996.19
2016-12-15T03:44:29.732Z,996.13
2016-12-15T03:45:38.412Z,996.18
2016-12-15T03:46:47.092Z,996.24
2016-12-15T03:47:55.775Z,996.19
2016-12-15T03:49:04.451Z,996.19
2016-12-15T03:50:13.138Z,996.12
2016-12-15T03:51:21.820Z,996.17
2016-12-15T03:52:30.499Z,996.13
2016-12-15T03:53:39.192Z,996.09
2016-12-15T03:54:47.871Z,996.13
2016-12-15T03:55:56.551Z,996.17
2016-12-15T03:57:05.232Z,996.16
2016-12-15T03:58:13.919Z,996.14
2016-12-15T03:59:22.605Z,996.13
2016-12-15T04:00:31.332Z,996.16
2016-12-15T04:01:40.012Z,996.18
2016-12-15T04:02:48.692Z,996.15
2016-12-15T04:03:57.371Z,996.14
2016-12-15T04:05:06.055Z,996.12
2016-12-15T04:06:14.749Z,996.15
2016-12-15T04:07:23.433Z,996.23
2016-12-15T04:08:32.112Z,996.26
2016-12-15T04:09:40.795Z,996.23
2016-12-15T04:10:49.483Z,996.27
2016-12-15T04:11:58.166Z,996.24
2016-12-15T04:13:06.854Z,996.26
2016-12-15T04:14:15.537Z,996.25
2016-12-15T04:15:24.218Z,996.23
2016-12-15T04:16:32.913Z,996.22
2016-12-15T04:17:41.908Z,996.26
2016-12-15T04:18:50.590Z,996.25
2016-12-15T04:19:59.271Z,996.22
2016-12-15T04:21:07.955Z,996.18
2016-12-15T04:22:16.640Z,996.17
2016-12-15T04:23:25.324Z,996.18
2016-12-15T04:24:34.031Z,996.18
2016-12-15T04:25:42.712Z,996.25
2016-12-15T04:26:51.394Z,996.23
2016-12-15T04:28:00.076Z,996.25
2016-12-15T04:29:08.765Z,996.23
2016-12-15T04:30:17.756Z,996.21
2016-12-15T04:31:26.436Z,996.28
2016-12-15T04:32:35.147Z,996.28
2016-12-15T04:33:43.835Z,996.31
2016-12-15T04:34:52.518Z,996.31
2016-12-15T04:36:01.529Z,996.32
2016-12-15T04:37:10.240Z,996.35
2016-12-15T04:38:18.923Z,996.37
2016-12-15T04:39:27.611Z,996.39
2016-12-15T04:40:36.289Z,996.39
2016-12-15T04:41:44.966Z,996.33
2016-12-15T04:42:53.650Z,996.27
2016-12-15T04:44:02.352Z,996.28
2016-12-15T04:45:11.039Z,996.26
2016-12-15T04:46:19.717Z,996.24
2016-12-15T04:47:28.399Z,996.33
2016-12-15T04:48:37.079Z,996.38
2016-12-15T04:49:45.759Z,996.29
2016-12-15T04:50:54.435Z,996.36
2016-12-15T04:52:03.431Z,996.34
2016-12-15T04:53:12.111Z,996.32
2016-12-15T04:54:20.788Z,996.26
2016-12-15T04:55:29.779Z,996.31
2016-12-15T04:56:38.489Z,996.31
2016-12-15T04:57:47.168Z,996.31
2016-12-15T04:58:55.844Z,996.32
2016-12-15T05:00:04.550Z,996.34
2016-12-15T05:01:13.234Z,996.37
2016-12-15T05:02:21.941Z,996.36
2016-12-15T05:03:30.970Z,996.27
2016-12-15T05:04:39.649Z,996.25
2016-12-15T05:05:48.333Z,996.27
2016-12-15T05:06:57.012Z,996.28
2016-12-15T05:08:05.697Z,996.3
2016-12-15T05:09:14.378Z,996.34
2016-12-15T05:10:23.065Z,996.35
2016-12-15T05:11:31.759Z,996.33
2016-12-15T05:12:40.438Z,996.34
2016-12-15T05:13:49.149Z,996.33
2016-12-15T05:14:57.832Z,996.3
2016-12-15T05:16:06.552Z,996.32
2016-12-15T05:17:15.233Z,996.3
2016-12-15T05:18:23.909Z,996.25
2016-12-15T05:19:32.614Z,996.22
2016-12-15T05:20:41.294Z,996.24
2016-12-15T05:21:49.973Z,996.27
2016-12-15T05:22:58.966Z,996.23
2016-12-15T05:24:07.643Z,996.22
2016-12-15T05:25:16.323Z,996.22
2016-12-15T05:26:25.002Z,996.21
2016-12-15T05:27:33.680Z,996.2
2016-12-15T05:28:42.356Z,996.25
2016-12-15T05:29:51.037Z,996.26
2016-12-15T05:30:59.715Z,996.28
2016-12-15T05:32:08.397Z,996.31
2016-12-15T05:33:17.085Z,996.35
2016-12-15T05:34:25.768Z,996.27
2016-12-15T05:35:34.442Z,996.32
2016-12-15T05:36:43.128Z,996.28
2016-12-15T05:37:51.804Z,996.31
2016-12-15T05:39:00.496Z,996.28
2016-12-15T05:40:09.183Z,996.3
2016-12-15T05:41:17.862Z,996.36
2016-12-15T05:42:26.548Z,996.38
2016-12-15T05:43:35.255Z,996.37
2016-12-15T05:44:43.936Z,996.45
2016-12-15T05:45:52.612Z,996.45
2016-12-15T05:47:01.608Z,996.39
2016-12-15T05:48:10.285Z,996.3
2016-12-15T05:49:18.964Z,996.28
2016-12-15T05:50:27.643Z,996.29
2016-12-15T05:51:36.320Z,996.23
2016-12-15T05:52:45.000Z,996.32
2016-12-15T05:53:53.682Z,996.3
2016-12-15T05:55:02.362Z,996.35
2016-12-15T05:56:11.047Z,996.4
2016-12-15T05:57:19.728Z,996.42
2016-12-15T05:58:28.446Z,996.47
2016-12-15T05:59:37.125Z,996.49
2016-12-15T06:00:45.807Z,996.46
2016-12-15T06:01:54.492Z,996.39
2016-12-15T06:03:03.197Z,996.38
2016-12-15T06:04:11.877Z,996.35
2016-12-15T06:05:20.557Z,996.43
2016-12-15T06:06:29.247Z,996.44
2016-12-15T06:07:37.929Z,996.43
2016-12-15T06:08:46.614Z,996.44
2016-12-15T06:09:55.291Z,996.42
2016-12-15T06:11:03.969Z,996.37
2016-12-15T06:12:12.656Z,996.35
2016-12-15T06:13:21.343Z,996.31
2016-12-15T06:14:30.026Z,996.33
2016-12-15T06:15:38.709Z,996.33
2016-12-15T06:16:47.388Z,996.28
2016-12-15T06:17:56.070Z,996.34
2016-12-15T06:19:04.751Z,996.35
2016-12-15T06:20:13.433Z,996.39
2016-12-15T06:21:22.112Z,996.45
2016-12-15T06:22:30.795Z,996.36
2016-12-15T06:23:39.479Z,996.31
2016-12-15T06:24:48.161Z,996.28
2016-12-15T06:25:56.841Z,996.3
2016-12-15T06:27:05.527Z,996.27
2016-12-15T06:28:14.208Z,996.33
2016-12-15T06:29:22.922Z,996.39
2016-12-15T06:30:31.604Z,996.45
2016-12-15T06:31:40.287Z,996.41
2016-12-15T06:32:48.967Z,996.32
2016-12-15T06:33:57.646Z,996.32
2016-12-15T06:35:06.326Z,996.38
2016-12-15T06:36:15.009Z,996.42
2016-12-15T06:37:23.691Z,996.42
2016-12-15T06:38:32.375Z,996.39
2016-12-15T06:39:41.053Z,996.45
2016-12-15T06:40:49.736Z,996.49
2016-12-15T06:41:58.425Z,996.49
2016-12-15T06:43:07.107Z,996.51
2016-12-15T06:44:15.789Z,996.5
2016-12-15T06:45:24.472Z,996.45
2016-12-15T06:46:33.160Z,996.5
2016-12-15T06:47:42.150Z,996.49
2016-12-15T06:48:50.835Z,996.46
2016-12-15T06:49:59.516Z,996.45
2016-12-15T06:51:08.252Z,996.49
2016-12-15T06:52:16.949Z,996.44
2016-12-15T06:53:25.627Z,996.34
2016-12-15T06:54:34.305Z,996.33
2016-12-15T06:55:42.984Z,996.32
2016-12-15T06:56:51.662Z,996.33
2016-12-15T06:58:00.342Z,996.3
2016-12-15T06:59:09.024Z,996.37
2016-12-15T07:00:17.730Z,996.36
2016-12-15T07:01:26.415Z,996.31
2016-12-15T07:02:35.097Z,996.33
2016-12-15T07:03:43.778Z,996.33
2016-12-15T07:04:52.459Z,996.34
2016-12-15T07:06:01.147Z,996.34
2016-12-15T07:07:09.829Z,996.33
2016-12-15T07:08:18.505Z,996.29
2016-12-15T07:09:27.197Z,996.3
2016-12-15T07:10:35.899Z,996.43
2016-12-15T07:11:44.578Z,996.52
2016-12-15T07:12:53.262Z,996.5
2016-12-15T07:14:01.961Z,996.55
2016-12-15T07:15:10.794Z,996.47
2016-12-15T07:16:19.475Z,996.51
2016-12-15T07:17:28.155Z,996.56
2016-12-15T07:18:36.839Z,996.62
2016-12-15T07:19:45.546Z,996.66
2016-12-15T07:20:54.224Z,996.76
2016-12-15T07:22:02.909Z,996.8
2016-12-15T07:23:11.588Z,996.78
2016-12-15T07:24:20.268Z,996.69
2016-12-15T07:25:28.947Z,996.72
2016-12-15T07:26:37.630Z,996.77
2016-12-15T07:27:46.623Z,996.78
2016-12-15T07:28:55.304Z,996.77
2016-12-15T07:30:04.303Z,996.78
2016-12-15T07:31:14.397Z,996.78
2016-12-15T07:32:23.071Z,996.81
2016-12-15T07:33:31.759Z,996.8
2016-12-15T07:34:40.442Z,996.78
2016-12-15T07:35:49.119Z,996.72
2016-12-15T07:36:57.799Z,996.8
2016-12-15T07:38:06.480Z,996.8
2016-12-15T07:39:15.162Z,996.7
2016-12-15T07:40:23.841Z,996.61
2016-12-15T07:41:32.521Z,996.59
2016-12-15T07:42:41.201Z,996.65
2016-12-15T07:43:49.890Z,996.66
2016-12-15T07:44:58.568Z,996.62
2016-12-15T07:46:07.257Z,996.64
2016-12-15T07:47:15.941Z,996.59
2016-12-15T07:48:24.615Z,996.62
2016-12-15T07:49:33.292Z,996.71
2016-12-15T07:50:41.973Z,996.73
2016-12-15T07:51:50.657Z,996.63
2016-12-15T07:52:59.335Z,996.57
2016-12-15T07:54:08.015Z,996.54
2016-12-15T07:55:16.695Z,996.56
2016-12-15T07:56:25.378Z,996.61
2016-12-15T07:57:34.061Z,996.55
2016-12-15T07:58:42.741Z,996.57
2016-12-15T07:59:51.735Z,996.57
2016-12-15T08:01:00.417Z,996.58
2016-12-15T08:02:09.413Z,996.57
2016-12-15T08:03:18.099Z,996.63
2016-12-15T08:04:26.788Z,996.63
2016-12-15T08:05:35.474Z,996.55
2016-12-15T08:06:44.154Z,996.53
2016-12-15T08:07:52.838Z,996.6
2016-12-15T08:09:01.530Z,996.69
2016-12-15T08:10:10.211Z,996.81
2016-12-15T08:11:18.902Z,996.78
2016-12-15T08:12:27.583Z,996.81
2016-12-15T08:13:36.262Z,996.82
2016-12-15T08:14:44.948Z,996.9
2016-12-15T08:15:53.625Z,996.97
2016-12-15T08:17:02.312Z,996.91
2016-12-15T08:18:10.996Z,996.94
2016-12-15T08:19:19.677Z,996.91
2016-12-15T08:20:28.358Z,996.94
2016-12-15T08:21:37.039Z,996.96
2016-12-15T08:22:45.722Z,996.94
2016-12-15T08:23:54.432Z,996.86
2016-12-15T08:25:03.117Z,996.78
2016-12-15T08:26:11.802Z,996.81
2016-12-15T08:27:20.479Z,996.85
2016-12-15T08:28:29.162Z,996.85
2016-12-15T08:29:37.993Z,996.9
2016-12-15T08:30:46.683Z,996.92
2016-12-15T08:31:55.394Z,996.91
2016-12-15T08:33:04.126Z,996.92
2016-12-15T08:34:12.812Z,996.92
2016-12-15T08:35:21.551Z,996.89
2016-12-15T08:36:30.236Z,996.87
2016-12-15T08:37:38.918Z,996.91
2016-12-15T08:38:47.605Z,996.92
2016-12-15T08:39:56.291Z,996.92
2016-12-15T08:41:04.977Z,996.87
2016-12-15T08:42:13.659Z,996.87
2016-12-15T08:43:22.341Z,996.85
2016-12-15T08:44:31.029Z,996.81
2016-12-15T08:45:39.721Z,996.76
2016-12-15T08:46:48.426Z,996.8
2016-12-15T08:47:57.107Z,996.83
2016-12-15T08:49:05.800Z,996.83
2016-12-15T08:50:14.485Z,996.84
2016-12-15T08:51:23.164Z,996.87
2016-12-15T08:52:31.844Z,996.88
2016-12-15T08:53:40.527Z,996.76
2016-12-15T08:54:49.210Z,996.79
2016-12-15T08:55:57.898Z,996.82
2016-12-15T08:57:06.579Z,996.8
2016-12-15T08:58:15.258Z,996.81
2016-12-15T08:59:23.958Z,996.75
2016-12-15T09:00:32.737Z,996.76
2016-12-15T09:01:41.417Z,996.81
2016-12-15T09:02:50.099Z,996.79
2016-12-15T09:03:58.784Z,996.84
2016-12-15T09:05:07.465Z,996.81
2016-12-15T09:06:16.174Z,996.83
2016-12-15T09:07:24.850Z,996.8
2016-12-15T09:08:33.535Z,996.78
2016-12-15T09:09:42.224Z,996.8
2016-12-15T09:10:50.909Z,996.79
2016-12-15T09:11:59.591Z,996.84
2016-12-15T09:13:08.273Z,996.79
2016-12-15T09:14:16.956Z,996.76
2016-12-15T09:15:25.640Z,996.82
2016-12-15T09:16:34.335Z,996.87
2016-12-15T09:17:43.015Z,996.83
2016-12-15T09:18:52.031Z,996.79
2016-12-15T09:20:00.716Z,996.84
2016-12-15T09:21:09.402Z,996.88
2016-12-15T09:22:18.082Z,996.95
2016-12-15T09:23:26.780Z,996.92
2016-12-15T09:24:35.468Z,996.93
2016-12-15T09:25:44.161Z,997.01
2016-12-15T09:26:52.842Z,996.98
2016-12-15T09:28:01.527Z,996.95
2016-12-15T09:29:10.215Z,996.95
2016-12-15T09:30:18.899Z,996.97
2016-12-15T09:31:27.583Z,996.97
2016-12-15T09:32:36.270Z,996.95
2016-12-15T09:33:44.956Z,996.97
2016-12-15T09:34:53.635Z,997.04
2016-12-15T09:36:02.318Z,997.05
2016-12-15T09:37:11.009Z,997.05
2016-12-15T09:38:19.693Z,997.04
2016-12-15T09:39:28.372Z,997.08
2016-12-15T09:40:37.053Z,997.09
2016-12-15T09:41:45.751Z,997.07
2016-12-15T09:42:54.432Z,997.04
2016-12-15T09:44:03.138Z,997.09
2016-12-15T09:45:11.820Z,997.09
2016-12-15T09:46:20.832Z,997.12
2016-12-15T09:47:29.533Z,997.04
2016-12-15T09:48:38.211Z,997.05
2016-12-15T09:49:46.890Z,997.03
2016-12-15T09:50:55.571Z,997.04
2016-12-15T09:52:04.256Z,997.05
2016-12-15T09:53:12.937Z,997.05
2016-12-15T09:54:21.626Z,997.08
2016-12-15T09:55:30.307Z,997
2016-12-15T09:56:38.994Z,997.03
2016-12-15T09:57:47.682Z,997
2016-12-15T09:58:56.371Z,996.97
2016-12-15T10:00:05.064Z,996.96
2016-12-15T10:01:13.754Z,996.99
2016-12-15T10:02:22.437Z,997.04
2016-12-15T10:03:31.119Z,997.07
2016-12-15T10:04:39.800Z,997.06
2016-12-15T10:05:48.481Z,997.1
2016-12-15T10:06:57.169Z,997.11
2016-12-15T10:08:05.852Z,997.13
2016-12-15T10:09:14.536Z,997.2
2016-12-15T10:10:23.221Z,997.13
2016-12-15T10:11:31.909Z,997.14
2016-12-15T10:12:40.904Z,997.07
2016-12-15T10:13:49.589Z,997.04
2016-12-15T10:14:58.274Z,997.01
2016-12-15T10:16:06.964Z,997.06
2016-12-15T10:17:15.652Z,997.1
2016-12-15T10:18:24.334Z,997.04
2016-12-15T10:19:33.021Z,997
2016-12-15T10:20:41.706Z,997.03
2016-12-15T10:21:50.397Z,997.02
2016-12-15T10:22:59.085Z,997.04
2016-12-15T10:24:07.776Z,996.95
2016-12-15T10:25:16.460Z,996.97
2016-12-15T10:26:25.151Z,996.95
2016-12-15T10:27:33.833Z,996.92
2016-12-15T10:28:42.515Z,996.89
2016-12-15T10:29:51.200Z,996.85
2016-12-15T10:30:59.881Z,996.9
2016-12-15T10:32:08.879Z,996.8
2016-12-15T10:33:17.564Z,996.79
2016-12-15T10:34:26.247Z,996.84
2016-12-15T10:35:34.933Z,996.84
2016-12-15T10:36:43.617Z,996.84
2016-12-15T10:37:52.302Z,996.84
2016-12-15T10:39:01.306Z,996.84
2016-12-15T10:40:09.990Z,996.9
2016-12-15T10:41:18.697Z,996.85
2016-12-15T10:42:27.382Z,996.81
2016-12-15T10:43:36.066Z,996.8
2016-12-15T10:44:44.750Z,996.77
2016-12-15T10:45:53.437Z,996.83
2016-12-15T10:47:02.124Z,996.86
2016-12-15T10:48:10.807Z,996.93
2016-12-15T10:49:19.492Z,996.92
2016-12-15T10:50:28.176Z,996.99
2016-12-15T10:51:36.863Z,996.96
2016-12-15T10:52:45.554Z,997.02
2016-12-15T10:53:54.241Z,997.03
2016-12-15T10:55:02.922Z,997.01
2016-12-15T10:56:11.606Z,996.92
2016-12-15T10:57:20.287Z,996.92
2016-12-15T10:58:28.973Z,996.92
2016-12-15T10:59:37.655Z,996.92
2016-12-15T11:00:46.343Z,996.96
2016-12-15T11:01:55.030Z,996.96
2016-12-15T11:03:03.712Z,996.93
2016-12-15T11:04:12.396Z,997.03
2016-12-15T11:05:21.076Z,997.08
2016-12-15T11:06:29.762Z,997.02
2016-12-15T11:07:38.448Z,997.05
2016-12-15T11:08:47.133Z,997.03
2016-12-15T11:09:56.147Z,997.02
2016-12-15T11:11:04.835Z,996.97
2016-12-15T11:12:13.518Z,997
2016-12-15T11:13:22.202Z,996.99
2016-12-15T11:14:30.886Z,996.98
2016-12-15T11:15:39.570Z,996.95
2016-12-15T11:16:48.255Z,996.91
2016-12-15T11:17:56.938Z,996.97
2016-12-15T11:19:05.626Z,997.01
2016-12-15T11:20:14.309Z,997.03
2016-12-15T11:21:22.991Z,996.95
2016-12-15T11:22:32.002Z,996.97
2016-12-15T11:23:40.683Z,996.97
2016-12-15T11:24:49.378Z,996.99
2016-12-15T11:25:58.069Z,997.05
2016-12-15T11:27:06.751Z,997.02
2016-12-15T11:28:15.438Z,997
2016-12-15T11:29:24.121Z,996.96
2016-12-15T11:30:32.812Z,996.92
2016-12-15T11:31:41.494Z,996.93
2016-12-15T11:32:50.180Z,996.9
2016-12-15T11:33:58.879Z,996.88
2016-12-15T11:35:07.563Z,996.86
2016-12-15T11:36:16.242Z,996.87
2016-12-15T11:37:24.922Z,996.87
2016-12-15T11:38:33.612Z,996.85
2016-12-15T11:39:42.307Z,996.83
2016-12-15T11:40:50.995Z,996.84
2016-12-15T11:41:59.687Z,996.9
2016-12-15T11:43:08.367Z,996.88
2016-12-15T11:44:17.051Z,996.86
2016-12-15T11:45:25.764Z,996.85
2016-12-15T11:46:34.446Z,996.79
2016-12-15T11:47:43.129Z,996.79
2016-12-15T11:48:51.814Z,996.87
2016-12-15T11:50:00.506Z,996.84
2016-12-15T11:51:09.188Z,996.86
2016-12-15T11:52:17.876Z,996.82
2016-12-15T11:53:26.560Z,996.81
2016-12-15T11:54:35.247Z,996.83
2016-12-15T11:55:43.931Z,996.8
2016-12-15T11:56:52.608Z,996.81
2016-12-15T11:58:01.292Z,996.84
2016-12-15T11:59:09.975Z,996.84
2016-12-15T12:00:18.665Z,996.87
2016-12-15T12:01:27.346Z,996.89
2016-12-15T12:02:36.027Z,996.94
2016-12-15T12:03:44.732Z,996.95
2016-12-15T12:04:53.418Z,997
2016-12-15T12:06:02.110Z,996.96
2016-12-15T12:07:10.789Z,996.94
2016-12-15T12:08:19.475Z,996.95
2016-12-15T12:09:28.165Z,996.99
2016-12-15T12:10:36.854Z,996.95
2016-12-15T12:11:45.542Z,996.93
2016-12-15T12:12:54.224Z,996.96
2016-12-15T12:14:02.907Z,996.95
2016-12-15T12:15:11.593Z,996.95
2016-12-15T12:16:20.271Z,996.97
2016-12-15T12:17:28.956Z,996.97
2016-12-15T12:18:37.645Z,997.02
2016-12-15T12:19:46.325Z,997.01
2016-12-15T12:20:55.007Z,997.01
2016-12-15T12:22:03.691Z,997.02
2016-12-15T12:23:12.376Z,997.06
2016-12-15T12:24:21.124Z,997.03
2016-12-15T12:25:29.813Z,997.07
2016-12-15T12:26:38.492Z,997.04
2016-12-15T12:27:47.177Z,997
2016-12-15T12:28:56.176Z,997.04
2016-12-15T12:30:04.861Z,997.05
2016-12-15T12:31:13.544Z,997.14
2016-12-15T12:32:22.227Z,997.1
2016-12-15T12:33:30.916Z,997.1
2016-12-15T12:34:39.599Z,997.09
2016-12-15T12:35:48.278Z,997.13
2016-12-15T12:36:56.955Z,997.12
2016-12-15T12:38:05.635Z,997.15
2016-12-15T12:39:14.317Z,997.07
2016-12-15T12:40:23.328Z,997.05
2016-12-15T12:41:32.008Z,996.99
2016-12-15T12:42:40.699Z,996.94
2016-12-15T12:43:49.385Z,996.94
2016-12-15T12:44:58.066Z,996.9
2016-12-15T12:46:06.764Z,996.86
2016-12-15T12:47:15.460Z,996.84
2016-12-15T12:48:24.142Z,996.82
2016-12-15T12:49:33.193Z,996.77
2016-12-15T12:50:41.875Z,996.74
2016-12-15T12:51:50.569Z,996.84
2016-12-15T12:52:59.251Z,996.94
2016-12-15T12:54:07.931Z,996.89
2016-12-15T12:55:16.617Z,996.91
2016-12-15T12:56:25.303Z,996.97
2016-12-15T12:57:33.999Z,997.01
2016-12-15T12:58:42.689Z,996.99
2016-12-15T12:59:51.378Z,997.01
2016-12-15T13:01:00.101Z,996.99
2016-12-15T13:02:09.106Z,996.97
2016-12-15T13:03:17.788Z,996.95
2016-12-15T13:04:26.475Z,996.96
2016-12-15T13:05:35.170Z,997
2016-12-15T13:06:44.193Z,996.97
2016-12-15T13:07:52.884Z,997.01
2016-12-15T13:09:01.572Z,997.05
2016-12-15T13:10:10.257Z,997.15
2016-12-15T13:11:18.944Z,997.17
2016-12-15T13:12:27.625Z,997.14
2016-12-15T13:13:36.310Z,997.01
2016-12-15T13:14:44.995Z,996.97
2016-12-15T13:15:53.677Z,996.95
2016-12-15T13:17:02.378Z,997
2016-12-15T13:18:11.063Z,996.99
2016-12-15T13:19:19.753Z,997
2016-12-15T13:20:28.433Z,997.02
2016-12-15T13:21:37.128Z,996.99
2016-12-15T13:22:45.808Z,996.94
2016-12-15T13:23:54.490Z,996.92
2016-12-15T13:25:03.178Z,996.93
2016-12-15T13:26:11.858Z,996.92
2016-12-15T13:27:20.541Z,996.91
2016-12-15T13:28:29.225Z,996.89
2016-12-15T13:29:37.908Z,996.86
2016-12-15T13:30:46.593Z,996.93
2016-12-15T13:31:55.285Z,996.9
2016-12-15T13:33:03.965Z,996.93
2016-12-15T13:34:12.657Z,996.96
2016-12-15T13:35:21.341Z,996.99
2016-12-15T13:36:30.021Z,997.01
2016-12-15T13:37:39.019Z,997.02
2016-12-15T13:38:47.708Z,997.06
2016-12-15T13:39:56.421Z,997.06
2016-12-15T13:41:05.103Z,997.03
2016-12-15T13:42:13.784Z,996.94
2016-12-15T13:43:22.466Z,996.89
2016-12-15T13:44:31.155Z,996.96
2016-12-15T13:45:39.837Z,996.96
2016-12-15T13:46:48.523Z,997
2016-12-15T13:47:57.216Z,997.01
2016-12-15T13:49:05.901Z,996.97
2016-12-15T13:50:14.581Z,996.92
2016-12-15T13:51:23.263Z,997
2016-12-15T13:52:31.950Z,996.98
2016-12-15T13:53:40.632Z,996.99
2016-12-15T13:54:49.313Z,996.96
2016-12-15T13:55:58.003Z,996.89
2016-12-15T13:57:07.003Z,996.89
2016-12-15T13:58:15.694Z,996.82
2016-12-15T13:59:24.382Z,996.81
2016-12-15T14:00:33.065Z,996.84
2016-12-15T14:01:41.743Z,996.88
2016-12-15T14:02:50.429Z,996.91
2016-12-15T14:03:59.114Z,996.95
2016-12-15T14:05:07.802Z,996.96
2016-12-15T14:06:16.481Z,996.96
2016-12-15T14:07:25.506Z,996.91
2016-12-15T14:08:34.186Z,996.89
2016-12-15T14:09:42.868Z,996.88
2016-12-15T14:10:51.553Z,996.82
2016-12-15T14:12:00.234Z,996.82
2016-12-15T14:13:08.919Z,996.9
2016-12-15T14:14:17.620Z,996.94
2016-12-15T14:15:26.303Z,997.03
2016-12-15T14:16:34.984Z,997.02
2016-12-15T14:17:43.673Z,996.97
2016-12-15T14:18:52.357Z,996.99
2016-12-15T14:20:01.043Z,996.96